sensor_id;sensor_type;location;lat;lon;timestamp;P1;durP1;ratioP1;P2;durP2;ratioP2
6531;SDS011;3299;42.004;24.868;2023-06-22T00:02:13;6.50;;;5.78;;
6531;SDS011;3299;42.004;24.868;2023-06-22T00:04:39;6.28;;;5.35;;
6531;SDS011;3299;42.004;24.868;2023-06-22T00:07:05;6.90;;;4.97;;
6531;SDS011;3299;42.004;24.868;2023-06-22T00:09:30;5.53;;;5.10;;
6531;SDS011;3299;42.004;24.868;2023-06-22T00:11:56;5.22;;;4.72;;
6531;SDS011;3299;42.004;24.868;2023-06-22T00:14:22;5.57;;;4.97;;
6531;SDS011;3299;42.004;24.868;2023-06-22T00:16:47;6.40;;;5.72;;
6531;SDS011;3299;42.004;24.868;2023-06-22T00:19:14;5.43;;;4.93;;
6531;SDS011;3299;42.004;24.868;2023-06-22T00:21:40;5.20;;;4.80;;
6531;SDS011;3299;42.004;24.868;2023-06-22T00:24:05;5.30;;;4.90;;
6531;SDS011;3299;42.004;24.868;2023-06-22T00:26:31;5.55;;;5.13;;
6531;SDS011;3299;42.004;24.868;2023-06-22T00:28:57;9.13;;;5.80;;
6531;SDS011;3299;42.004;24.868;2023-06-22T00:31:22;5.70;;;5.20;;
6531;SDS011;3299;42.004;24.868;2023-06-22T00:33:48;6.03;;;5.43;;
6531;SDS011;3299;42.004;24.868;2023-06-22T00:36:15;5.63;;;5.18;;
6531;SDS011;3299;42.004;24.868;2023-06-22T00:38:42;6.93;;;5.10;;
6531;SDS011;3299;42.004;24.868;2023-06-22T00:41:08;5.88;;;5.47;;
6531;SDS011;3299;42.004;24.868;2023-06-22T00:43:34;5.22;;;4.82;;
6531;SDS011;3299;42.004;24.868;2023-06-22T00:45:59;5.80;;;5.30;;
6531;SDS011;3299;42.004;24.868;2023-06-22T00:48:25;5.47;;;4.82;;
6531;SDS011;3299;42.004;24.868;2023-06-22T00:50:50;5.47;;;5.07;;
6531;SDS011;3299;42.004;24.868;2023-06-22T00:53:20;5.50;;;5.10;;
6531;SDS011;3299;42.004;24.868;2023-06-22T00:55:46;6.03;;;5.25;;
6531;SDS011;3299;42.004;24.868;2023-06-22T00:58:12;5.57;;;5.07;;
6531;SDS011;3299;42.004;24.868;2023-06-22T01:00:39;5.80;;;5.30;;
6531;SDS011;3299;42.004;24.868;2023-06-22T01:03:06;5.90;;;5.25;;
6531;SDS011;3299;42.004;24.868;2023-06-22T01:05:35;7.70;;;5.75;;
6531;SDS011;3299;42.004;24.868;2023-06-22T01:16:00;5.55;;;5.05;;
6531;SDS011;3299;42.004;24.868;2023-06-22T01:18:30;5.93;;;5.13;;
6531;SDS011;3299;42.004;24.868;2023-06-22T01:20:56;5.82;;;5.22;;
6531;SDS011;3299;42.004;24.868;2023-06-22T01:23:27;5.80;;;5.30;;
6531;SDS011;3299;42.004;24.868;2023-06-22T01:29:02;5.95;;;5.43;;
6531;SDS011;3299;42.004;24.868;2023-06-22T01:31:29;5.78;;;5.18;;
6531;SDS011;3299;42.004;24.868;2023-06-22T01:34:01;6.13;;;5.53;;
6531;SDS011;3299;42.004;24.868;2023-06-22T01:36:30;5.53;;;5.13;;
6531;SDS011;3299;42.004;24.868;2023-06-22T01:38:57;6.75;;;5.53;;
6531;SDS011;3299;42.004;24.868;2023-06-22T01:41:27;5.85;;;5.38;;
6531;SDS011;3299;42.004;24.868;2023-06-22T01:43:55;6.38;;;5.65;;
6531;SDS011;3299;42.004;24.868;2023-06-22T01:46:21;8.82;;;5.70;;
6531;SDS011;3299;42.004;24.868;2023-06-22T01:48:48;5.05;;;4.65;;
6531;SDS011;3299;42.004;24.868;2023-06-22T01:51:14;5.30;;;4.90;;
6531;SDS011;3299;42.004;24.868;2023-06-22T01:53:40;8.57;;;5.25;;
6531;SDS011;3299;42.004;24.868;2023-06-22T01:56:06;5.78;;;5.28;;
6531;SDS011;3299;42.004;24.868;2023-06-22T01:58:31;5.88;;;5.10;;
6531;SDS011;3299;42.004;24.868;2023-06-22T02:01:00;6.32;;;5.72;;
6531;SDS011;3299;42.004;24.868;2023-06-22T02:03:43;7.00;;;5.85;;
6531;SDS011;3299;42.004;24.868;2023-06-22T02:06:46;6.25;;;5.60;;
6531;SDS011;3299;42.004;24.868;2023-06-22T02:09:10;6.55;;;5.20;;
6531;SDS011;3299;42.004;24.868;2023-06-22T02:11:40;6.15;;;5.47;;
6531;SDS011;3299;42.004;24.868;2023-06-22T02:14:07;6.15;;;5.57;;
6531;SDS011;3299;42.004;24.868;2023-06-22T02:16:33;6.70;;;5.85;;
6531;SDS011;3299;42.004;24.868;2023-06-22T02:19:01;5.82;;;5.35;;
6531;SDS011;3299;42.004;24.868;2023-06-22T02:21:31;6.55;;;5.82;;
6531;SDS011;3299;42.004;24.868;2023-06-22T02:23:57;6.60;;;6.00;;
6531;SDS011;3299;42.004;24.868;2023-06-22T02:26:23;6.97;;;5.57;;
6531;SDS011;3299;42.004;24.868;2023-06-22T02:28:50;6.32;;;5.70;;
6531;SDS011;3299;42.004;24.868;2023-06-22T02:31:15;5.70;;;5.20;;
6531;SDS011;3299;42.004;24.868;2023-06-22T02:33:41;6.20;;;5.50;;
6531;SDS011;3299;42.004;24.868;2023-06-22T02:36:06;7.40;;;5.60;;
6531;SDS011;3299;42.004;24.868;2023-06-22T02:38:34;6.60;;;5.50;;
6531;SDS011;3299;42.004;24.868;2023-06-22T02:41:01;6.03;;;5.53;;
6531;SDS011;3299;42.004;24.868;2023-06-22T02:43:27;6.95;;;5.63;;
6531;SDS011;3299;42.004;24.868;2023-06-22T02:45:52;6.13;;;5.53;;
6531;SDS011;3299;42.004;24.868;2023-06-22T02:48:18;5.90;;;5.40;;
6531;SDS011;3299;42.004;24.868;2023-06-22T02:50:43;6.60;;;6.00;;
6531;SDS011;3299;42.004;24.868;2023-06-22T02:53:09;6.55;;;5.40;;
6531;SDS011;3299;42.004;24.868;2023-06-22T02:55:34;6.32;;;5.82;;
6531;SDS011;3299;42.004;24.868;2023-06-22T02:58:00;6.88;;;5.70;;
6531;SDS011;3299;42.004;24.868;2023-06-22T03:00:30;5.97;;;5.47;;
6531;SDS011;3299;42.004;24.868;2023-06-22T03:02:56;7.13;;;5.47;;
6531;SDS011;3299;42.004;24.868;2023-06-22T03:05:22;6.43;;;5.93;;
6531;SDS011;3299;42.004;24.868;2023-06-22T03:07:48;6.28;;;5.68;;
6531;SDS011;3299;42.004;24.868;2023-06-22T03:10:14;5.72;;;5.32;;
6531;SDS011;3299;42.004;24.868;2023-06-22T03:12:40;7.22;;;5.65;;
6531;SDS011;3299;42.004;24.868;2023-06-22T03:15:07;6.07;;;5.57;;
6531;SDS011;3299;42.004;24.868;2023-06-22T03:17:34;6.97;;;5.60;;
6531;SDS011;3299;42.004;24.868;2023-06-22T03:20:00;6.20;;;5.60;;
6531;SDS011;3299;42.004;24.868;2023-06-22T03:22:26;6.35;;;5.85;;
6531;SDS011;3299;42.004;24.868;2023-06-22T03:24:51;6.18;;;5.55;;
6531;SDS011;3299;42.004;24.868;2023-06-22T03:27:17;9.27;;;6.40;;
6531;SDS011;3299;42.004;24.868;2023-06-22T03:29:43;6.90;;;6.20;;
6531;SDS011;3299;42.004;24.868;2023-06-22T03:32:09;7.47;;;6.03;;
6531;SDS011;3299;42.004;24.868;2023-06-22T03:34:35;6.50;;;6.00;;
6531;SDS011;3299;42.004;24.868;2023-06-22T03:37:04;7.03;;;6.07;;
6531;SDS011;3299;42.004;24.868;2023-06-22T03:39:29;7.60;;;6.75;;
6531;SDS011;3299;42.004;24.868;2023-06-22T03:41:56;6.82;;;6.20;;
6531;SDS011;3299;42.004;24.868;2023-06-22T03:44:22;7.72;;;6.43;;
6531;SDS011;3299;42.004;24.868;2023-06-22T03:46:47;7.38;;;6.70;;
6531;SDS011;3299;42.004;24.868;2023-06-22T03:49:12;7.80;;;6.78;;
6531;SDS011;3299;42.004;24.868;2023-06-22T03:51:38;6.68;;;6.18;;
6531;SDS011;3299;42.004;24.868;2023-06-22T03:54:04;6.95;;;6.35;;
6531;SDS011;3299;42.004;24.868;2023-06-22T03:56:29;7.20;;;6.57;;
6531;SDS011;3299;42.004;24.868;2023-06-22T03:58:54;8.68;;;7.70;;
6531;SDS011;3299;42.004;24.868;2023-06-22T04:01:20;11.52;;;8.18;;
6531;SDS011;3299;42.004;24.868;2023-06-22T04:03:45;9.80;;;8.18;;
6531;SDS011;3299;42.004;24.868;2023-06-22T04:06:13;9.98;;;8.23;;
6531;SDS011;3299;42.004;24.868;2023-06-22T04:08:38;8.63;;;7.82;;
6531;SDS011;3299;42.004;24.868;2023-06-22T04:11:04;9.90;;;8.82;;
6531;SDS011;3299;42.004;24.868;2023-06-22T04:13:30;9.55;;;8.10;;
6531;SDS011;3299;42.004;24.868;2023-06-22T04:15:55;9.48;;;8.48;;
6531;SDS011;3299;42.004;24.868;2023-06-22T04:18:21;8.35;;;7.55;;
6531;SDS011;3299;42.004;24.868;2023-06-22T04:20:46;9.48;;;8.38;;
6531;SDS011;3299;42.004;24.868;2023-06-22T04:23:12;8.60;;;7.30;;
6531;SDS011;3299;42.004;24.868;2023-06-22T04:25:37;7.03;;;6.38;;
6531;SDS011;3299;42.004;24.868;2023-06-22T04:28:03;7.97;;;7.28;;
6531;SDS011;3299;42.004;24.868;2023-06-22T04:30:29;8.00;;;7.30;;
6531;SDS011;3299;42.004;24.868;2023-06-22T04:32:56;6.95;;;6.25;;
6531;SDS011;3299;42.004;24.868;2023-06-22T04:35:23;5.90;;;5.38;;
6531;SDS011;3299;42.004;24.868;2023-06-22T04:37:48;7.18;;;6.57;;
6531;SDS011;3299;42.004;24.868;2023-06-22T04:40:14;5.75;;;5.30;;
6531;SDS011;3299;42.004;24.868;2023-06-22T04:42:40;10.95;;;5.85;;
6531;SDS011;3299;42.004;24.868;2023-06-22T04:45:18;6.25;;;5.65;;
6531;SDS011;3299;42.004;24.868;2023-06-22T04:47:44;6.60;;;6.00;;
6531;SDS011;3299;42.004;24.868;2023-06-22T04:50:11;11.43;;;9.45;;
6531;SDS011;3299;42.004;24.868;2023-06-22T04:52:37;11.30;;;8.48;;
6531;SDS011;3299;42.004;24.868;2023-06-22T04:55:02;19.08;;;10.02;;
6531;SDS011;3299;42.004;24.868;2023-06-22T04:57:28;12.38;;;9.18;;
6531;SDS011;3299;42.004;24.868;2023-06-22T04:59:58;16.13;;;9.45;;
6531;SDS011;3299;42.004;24.868;2023-06-22T05:02:36;23.00;;;10.35;;
6531;SDS011;3299;42.004;24.868;2023-06-22T05:05:02;20.80;;;10.18;;
6531;SDS011;3299;42.004;24.868;2023-06-22T05:07:32;16.35;;;9.40;;
6531;SDS011;3299;42.004;24.868;2023-06-22T05:09:58;14.13;;;10.38;;
6531;SDS011;3299;42.004;24.868;2023-06-22T05:12:23;14.57;;;9.88;;
6531;SDS011;3299;42.004;24.868;2023-06-22T05:14:49;17.10;;;9.77;;
6531;SDS011;3299;42.004;24.868;2023-06-22T05:17:14;13.02;;;9.18;;
6531;SDS011;3299;42.004;24.868;2023-06-22T05:19:44;11.85;;;9.73;;
6531;SDS011;3299;42.004;24.868;2023-06-22T05:22:14;9.98;;;8.98;;
6531;SDS011;3299;42.004;24.868;2023-06-22T05:24:40;11.00;;;8.48;;
6531;SDS011;3299;42.004;24.868;2023-06-22T05:27:06;13.82;;;9.20;;
6531;SDS011;3299;42.004;24.868;2023-06-22T05:29:32;17.27;;;8.85;;
6531;SDS011;3299;42.004;24.868;2023-06-22T05:31:57;14.57;;;9.10;;
6531;SDS011;3299;42.004;24.868;2023-06-22T05:34:22;16.17;;;9.75;;
6531;SDS011;3299;42.004;24.868;2023-06-22T05:36:48;11.73;;;10.48;;
6531;SDS011;3299;42.004;24.868;2023-06-22T05:39:13;13.65;;;9.88;;
6531;SDS011;3299;42.004;24.868;2023-06-22T05:41:39;8.18;;;6.13;;
6531;SDS011;3299;42.004;24.868;2023-06-22T05:44:05;7.57;;;6.88;;
6531;SDS011;3299;42.004;24.868;2023-06-22T05:46:31;6.10;;;5.60;;
6531;SDS011;3299;42.004;24.868;2023-06-22T05:48:56;7.13;;;6.45;;
6531;SDS011;3299;42.004;24.868;2023-06-22T05:51:22;6.45;;;5.75;;
6531;SDS011;3299;42.004;24.868;2023-06-22T05:53:47;10.05;;;7.93;;
6531;SDS011;3299;42.004;24.868;2023-06-22T05:56:15;11.68;;;8.95;;
6531;SDS011;3299;42.004;24.868;2023-06-22T05:58:41;11.07;;;9.23;;
6531;SDS011;3299;42.004;24.868;2023-06-22T06:01:06;17.88;;;10.73;;
6531;SDS011;3299;42.004;24.868;2023-06-22T06:03:32;16.48;;;11.10;;
6531;SDS011;3299;42.004;24.868;2023-06-22T06:05:57;24.42;;;11.57;;
6531;SDS011;3299;42.004;24.868;2023-06-22T06:08:23;19.33;;;11.40;;
6531;SDS011;3299;42.004;24.868;2023-06-22T06:10:48;21.17;;;12.73;;
6531;SDS011;3299;42.004;24.868;2023-06-22T06:13:14;15.57;;;11.75;;
6531;SDS011;3299;42.004;24.868;2023-06-22T06:15:39;17.25;;;11.38;;
6531;SDS011;3299;42.004;24.868;2023-06-22T06:18:05;14.90;;;10.43;;
6531;SDS011;3299;42.004;24.868;2023-06-22T06:20:31;18.90;;;12.77;;
6531;SDS011;3299;42.004;24.868;2023-06-22T06:22:57;20.38;;;11.13;;
6531;SDS011;3299;42.004;24.868;2023-06-22T06:25:23;16.35;;;11.40;;
6531;SDS011;3299;42.004;24.868;2023-06-22T06:27:49;14.70;;;10.45;;
6531;SDS011;3299;42.004;24.868;2023-06-22T06:30:16;19.10;;;11.98;;
6531;SDS011;3299;42.004;24.868;2023-06-22T06:32:43;15.32;;;11.00;;
6531;SDS011;3299;42.004;24.868;2023-06-22T06:35:10;19.45;;;11.55;;
6531;SDS011;3299;42.004;24.868;2023-06-22T06:37:38;14.05;;;10.10;;
6531;SDS011;3299;42.004;24.868;2023-06-22T06:40:05;23.42;;;10.73;;
6531;SDS011;3299;42.004;24.868;2023-06-22T06:42:39;11.77;;;9.65;;
6531;SDS011;3299;42.004;24.868;2023-06-22T06:45:10;14.18;;;9.35;;
6531;SDS011;3299;42.004;24.868;2023-06-22T06:47:40;9.63;;;7.70;;
6531;SDS011;3299;42.004;24.868;2023-06-22T06:50:06;7.40;;;6.55;;
6531;SDS011;3299;42.004;24.868;2023-06-22T06:52:32;8.35;;;6.80;;
6531;SDS011;3299;42.004;24.868;2023-06-22T06:54:58;8.43;;;7.20;;
6531;SDS011;3299;42.004;24.868;2023-06-22T06:57:23;9.25;;;8.35;;
6531;SDS011;3299;42.004;24.868;2023-06-22T06:59:51;11.80;;;9.70;;
6531;SDS011;3299;42.004;24.868;2023-06-22T07:02:16;12.50;;;9.38;;
6531;SDS011;3299;42.004;24.868;2023-06-22T07:04:42;10.10;;;9.00;;
6531;SDS011;3299;42.004;24.868;2023-06-22T07:07:07;13.65;;;9.30;;
6531;SDS011;3299;42.004;24.868;2023-06-22T07:09:32;14.52;;;10.43;;
6531;SDS011;3299;42.004;24.868;2023-06-22T07:11:58;11.75;;;10.25;;
6531;SDS011;3299;42.004;24.868;2023-06-22T07:14:23;11.75;;;10.27;;
6531;SDS011;3299;42.004;24.868;2023-06-22T07:16:49;13.98;;;10.60;;
6531;SDS011;3299;42.004;24.868;2023-06-22T07:19:14;14.43;;;10.80;;
6531;SDS011;3299;42.004;24.868;2023-06-22T07:21:40;14.50;;;11.13;;
6531;SDS011;3299;42.004;24.868;2023-06-22T07:24:06;12.68;;;11.32;;
6531;SDS011;3299;42.004;24.868;2023-06-22T07:26:32;13.25;;;10.32;;
6531;SDS011;3299;42.004;24.868;2023-06-22T07:28:58;14.55;;;10.32;;
6531;SDS011;3299;42.004;24.868;2023-06-22T07:31:24;12.18;;;10.52;;
6531;SDS011;3299;42.004;24.868;2023-06-22T07:33:50;12.75;;;10.43;;
6531;SDS011;3299;42.004;24.868;2023-06-22T07:36:16;11.15;;;10.02;;
6531;SDS011;3299;42.004;24.868;2023-06-22T07:38:42;11.23;;;9.77;;
6531;SDS011;3299;42.004;24.868;2023-06-22T07:41:07;9.73;;;8.82;;
6531;SDS011;3299;42.004;24.868;2023-06-22T07:43:33;11.23;;;9.38;;
6531;SDS011;3299;42.004;24.868;2023-06-22T07:46:01;12.20;;;9.13;;
6531;SDS011;3299;42.004;24.868;2023-06-22T07:48:30;11.93;;;9.60;;
6531;SDS011;3299;42.004;24.868;2023-06-22T07:50:55;10.05;;;8.82;;
6531;SDS011;3299;42.004;24.868;2023-06-22T07:53:21;9.07;;;8.27;;
6531;SDS011;3299;42.004;24.868;2023-06-22T07:55:47;9.65;;;8.65;;
6531;SDS011;3299;42.004;24.868;2023-06-22T07:58:12;11.82;;;8.70;;
6531;SDS011;3299;42.004;24.868;2023-06-22T08:00:38;8.40;;;7.70;;
6531;SDS011;3299;42.004;24.868;2023-06-22T08:03:03;10.18;;;8.57;;
6531;SDS011;3299;42.004;24.868;2023-06-22T08:05:30;8.93;;;8.02;;
6531;SDS011;3299;42.004;24.868;2023-06-22T08:07:56;9.88;;;7.72;;
6531;SDS011;3299;42.004;24.868;2023-06-22T08:10:21;9.88;;;7.07;;
6531;SDS011;3299;42.004;24.868;2023-06-22T08:12:47;13.57;;;8.32;;
6531;SDS011;3299;42.004;24.868;2023-06-22T08:15:12;9.27;;;7.57;;
6531;SDS011;3299;42.004;24.868;2023-06-22T08:17:38;8.18;;;7.10;;
6531;SDS011;3299;42.004;24.868;2023-06-22T08:20:05;7.10;;;6.47;;
6531;SDS011;3299;42.004;24.868;2023-06-22T08:22:38;6.93;;;6.32;;
6531;SDS011;3299;42.004;24.868;2023-06-22T08:25:04;6.70;;;6.10;;
6531;SDS011;3299;42.004;24.868;2023-06-22T08:27:30;7.05;;;6.32;;
6531;SDS011;3299;42.004;24.868;2023-06-22T08:29:59;7.70;;;6.50;;
6531;SDS011;3299;42.004;24.868;2023-06-22T08:32:25;6.18;;;5.68;;
6531;SDS011;3299;42.004;24.868;2023-06-22T08:34:53;7.20;;;6.32;;
6531;SDS011;3299;42.004;24.868;2023-06-22T08:37:19;6.80;;;5.78;;
6531;SDS011;3299;42.004;24.868;2023-06-22T08:39:45;6.20;;;5.70;;
6531;SDS011;3299;42.004;24.868;2023-06-22T08:42:11;6.82;;;6.10;;
6531;SDS011;3299;42.004;24.868;2023-06-22T08:44:37;6.63;;;6.13;;
6531;SDS011;3299;42.004;24.868;2023-06-22T08:47:02;6.80;;;6.20;;
6531;SDS011;3299;42.004;24.868;2023-06-22T08:49:28;7.15;;;6.30;;
6531;SDS011;3299;42.004;24.868;2023-06-22T08:51:54;6.68;;;5.97;;
6531;SDS011;3299;42.004;24.868;2023-06-22T08:54:21;6.70;;;6.13;;
6531;SDS011;3299;42.004;24.868;2023-06-22T08:56:47;7.35;;;6.15;;
6531;SDS011;3299;42.004;24.868;2023-06-22T08:59:12;6.55;;;5.88;;
6531;SDS011;3299;42.004;24.868;2023-06-22T09:01:38;6.25;;;5.75;;
6531;SDS011;3299;42.004;24.868;2023-06-22T09:04:03;8.40;;;6.05;;
6531;SDS011;3299;42.004;24.868;2023-06-22T09:06:31;8.00;;;5.13;;
6531;SDS011;3299;42.004;24.868;2023-06-22T09:08:56;5.90;;;5.40;;
6531;SDS011;3299;42.004;24.868;2023-06-22T09:11:24;6.07;;;5.57;;
6531;SDS011;3299;42.004;24.868;2023-06-22T09:13:50;6.80;;;6.20;;
6531;SDS011;3299;42.004;24.868;2023-06-22T09:16:17;9.93;;;5.85;;
6531;SDS011;3299;42.004;24.868;2023-06-22T09:18:42;6.20;;;5.60;;
6531;SDS011;3299;42.004;24.868;2023-06-22T09:21:08;6.50;;;5.90;;
6531;SDS011;3299;42.004;24.868;2023-06-22T09:23:33;7.68;;;6.18;;
6531;SDS011;3299;42.004;24.868;2023-06-22T09:25:58;6.63;;;6.05;;
6531;SDS011;3299;42.004;24.868;2023-06-22T09:28:24;6.15;;;5.60;;
6531;SDS011;3299;42.004;24.868;2023-06-22T09:30:50;6.45;;;5.95;;
6531;SDS011;3299;42.004;24.868;2023-06-22T09:33:15;8.88;;;6.18;;
6531;SDS011;3299;42.004;24.868;2023-06-22T09:35:40;8.07;;;6.20;;
6531;SDS011;3299;42.004;24.868;2023-06-22T09:38:06;6.90;;;6.10;;
6531;SDS011;3299;42.004;24.868;2023-06-22T09:40:31;6.07;;;5.57;;
6531;SDS011;3299;42.004;24.868;2023-06-22T09:43:00;6.72;;;6.13;;
6531;SDS011;3299;42.004;24.868;2023-06-22T09:45:25;7.63;;;6.28;;
6531;SDS011;3299;42.004;24.868;2023-06-22T09:47:51;8.13;;;6.20;;
6531;SDS011;3299;42.004;24.868;2023-06-22T09:50:16;9.00;;;6.22;;
6531;SDS011;3299;42.004;24.868;2023-06-22T09:52:42;7.18;;;5.88;;
6531;SDS011;3299;42.004;24.868;2023-06-22T09:55:09;7.35;;;5.60;;
6531;SDS011;3299;42.004;24.868;2023-06-22T09:57:35;9.35;;;5.80;;
6531;SDS011;3299;42.004;24.868;2023-06-22T10:00:00;6.47;;;5.88;;
6531;SDS011;3299;42.004;24.868;2023-06-22T10:02:26;7.18;;;6.38;;
6531;SDS011;3299;42.004;24.868;2023-06-22T10:04:51;6.78;;;6.07;;
6531;SDS011;3299;42.004;24.868;2023-06-22T10:07:17;6.20;;;5.60;;
6531;SDS011;3299;42.004;24.868;2023-06-22T10:09:42;5.82;;;5.30;;
6531;SDS011;3299;42.004;24.868;2023-06-22T10:12:08;5.90;;;5.30;;
6531;SDS011;3299;42.004;24.868;2023-06-22T10:14:33;8.43;;;5.97;;
6531;SDS011;3299;42.004;24.868;2023-06-22T10:16:59;6.22;;;5.68;;
6531;SDS011;3299;42.004;24.868;2023-06-22T10:19:24;7.78;;;5.70;;
6531;SDS011;3299;42.004;24.868;2023-06-22T10:21:49;7.85;;;5.93;;
6531;SDS011;3299;42.004;24.868;2023-06-22T10:24:15;6.95;;;5.65;;
6531;SDS011;3299;42.004;24.868;2023-06-22T10:26:40;6.05;;;5.47;;
6531;SDS011;3299;42.004;24.868;2023-06-22T10:29:06;6.40;;;5.57;;
6531;SDS011;3299;42.004;24.868;2023-06-22T10:31:31;5.57;;;5.10;;
6531;SDS011;3299;42.004;24.868;2023-06-22T10:33:57;6.55;;;5.95;;
6531;SDS011;3299;42.004;24.868;2023-06-22T10:36:22;8.15;;;5.90;;
6531;SDS011;3299;42.004;24.868;2023-06-22T10:38:48;6.00;;;5.50;;
6531;SDS011;3299;42.004;24.868;2023-06-22T10:41:14;8.07;;;5.80;;
6531;SDS011;3299;42.004;24.868;2023-06-22T10:43:40;5.95;;;5.25;;
6531;SDS011;3299;42.004;24.868;2023-06-22T10:46:06;5.93;;;5.38;;
6531;SDS011;3299;42.004;24.868;2023-06-22T10:48:32;7.80;;;5.68;;
6531;SDS011;3299;42.004;24.868;2023-06-22T10:50:57;5.85;;;5.25;;
6531;SDS011;3299;42.004;24.868;2023-06-22T10:53:22;7.47;;;5.63;;
6531;SDS011;3299;42.004;24.868;2023-06-22T10:55:48;5.88;;;5.28;;
6531;SDS011;3299;42.004;24.868;2023-06-22T10:58:14;5.30;;;4.97;;
6531;SDS011;3299;42.004;24.868;2023-06-22T11:00:39;6.00;;;5.50;;
6531;SDS011;3299;42.004;24.868;2023-06-22T11:03:05;6.25;;;5.63;;
6531;SDS011;3299;42.004;24.868;2023-06-22T11:05:31;6.25;;;5.63;;
6531;SDS011;3299;42.004;24.868;2023-06-22T11:07:57;6.80;;;5.85;;
6531;SDS011;3299;42.004;24.868;2023-06-22T11:10:22;5.63;;;5.22;;
6531;SDS011;3299;42.004;24.868;2023-06-22T11:12:48;6.47;;;5.60;;
6531;SDS011;3299;42.004;24.868;2023-06-22T11:15:13;8.40;;;5.85;;
6531;SDS011;3299;42.004;24.868;2023-06-22T11:17:38;6.30;;;5.70;;
6531;SDS011;3299;42.004;24.868;2023-06-22T11:20:04;7.45;;;5.20;;
6531;SDS011;3299;42.004;24.868;2023-06-22T11:22:39;6.45;;;5.95;;
6531;SDS011;3299;42.004;24.868;2023-06-22T11:25:05;8.20;;;6.20;;
6531;SDS011;3299;42.004;24.868;2023-06-22T11:27:31;6.40;;;5.78;;
6531;SDS011;3299;42.004;24.868;2023-06-22T11:29:57;7.10;;;5.40;;
6531;SDS011;3299;42.004;24.868;2023-06-22T11:32:23;5.95;;;5.35;;
6531;SDS011;3299;42.004;24.868;2023-06-22T11:34:48;8.55;;;6.05;;
6531;SDS011;3299;42.004;24.868;2023-06-22T11:37:14;6.05;;;5.40;;
6531;SDS011;3299;42.004;24.868;2023-06-22T11:39:40;6.95;;;5.90;;
6531;SDS011;3299;42.004;24.868;2023-06-22T11:42:06;6.15;;;5.57;;
6531;SDS011;3299;42.004;24.868;2023-06-22T11:44:31;6.93;;;5.55;;
6531;SDS011;3299;42.004;24.868;2023-06-22T11:46:57;6.93;;;6.32;;
6531;SDS011;3299;42.004;24.868;2023-06-22T11:49:22;8.15;;;6.00;;
6531;SDS011;3299;42.004;24.868;2023-06-22T11:51:47;7.35;;;5.68;;
6531;SDS011;3299;42.004;24.868;2023-06-22T11:54:13;8.18;;;5.47;;
6531;SDS011;3299;42.004;24.868;2023-06-22T11:56:38;6.90;;;5.78;;
6531;SDS011;3299;42.004;24.868;2023-06-22T11:59:04;8.98;;;6.50;;
6531;SDS011;3299;42.004;24.868;2023-06-22T12:01:30;6.72;;;6.03;;
6531;SDS011;3299;42.004;24.868;2023-06-22T12:03:58;8.10;;;6.03;;
6531;SDS011;3299;42.004;24.868;2023-06-22T12:06:23;6.55;;;6.00;;
6531;SDS011;3299;42.004;24.868;2023-06-22T12:08:48;6.60;;;5.68;;
6531;SDS011;3299;42.004;24.868;2023-06-22T12:11:14;7.05;;;6.35;;
6531;SDS011;3299;42.004;24.868;2023-06-22T12:13:39;6.93;;;6.25;;
6531;SDS011;3299;42.004;24.868;2023-06-22T12:16:05;9.43;;;6.57;;
6531;SDS011;3299;42.004;24.868;2023-06-22T12:18:30;7.20;;;6.18;;
6531;SDS011;3299;42.004;24.868;2023-06-22T12:20:55;6.47;;;5.97;;
6531;SDS011;3299;42.004;24.868;2023-06-22T12:23:21;8.95;;;6.43;;
6531;SDS011;3299;42.004;24.868;2023-06-22T12:25:46;6.90;;;6.10;;
6531;SDS011;3299;42.004;24.868;2023-06-22T12:28:12;6.75;;;6.15;;
6531;SDS011;3299;42.004;24.868;2023-06-22T12:30:37;7.88;;;6.03;;
6531;SDS011;3299;42.004;24.868;2023-06-22T12:33:03;7.55;;;6.20;;
6531;SDS011;3299;42.004;24.868;2023-06-22T12:35:28;7.78;;;5.78;;
6531;SDS011;3299;42.004;24.868;2023-06-22T12:37:54;7.30;;;5.95;;
6531;SDS011;3299;42.004;24.868;2023-06-22T12:40:19;6.72;;;5.97;;
6531;SDS011;3299;42.004;24.868;2023-06-22T12:42:45;8.15;;;5.97;;
6531;SDS011;3299;42.004;24.868;2023-06-22T12:45:10;6.40;;;5.82;;
6531;SDS011;3299;42.004;24.868;2023-06-22T12:47:36;6.75;;;6.03;;
6531;SDS011;3299;42.004;24.868;2023-06-22T12:50:01;6.45;;;5.78;;
6531;SDS011;3299;42.004;24.868;2023-06-22T12:52:29;6.00;;;5.60;;
6531;SDS011;3299;42.004;24.868;2023-06-22T12:54:56;6.30;;;5.85;;
6531;SDS011;3299;42.004;24.868;2023-06-22T12:57:21;6.15;;;5.47;;
6531;SDS011;3299;42.004;24.868;2023-06-22T12:59:47;6.47;;;5.90;;
6531;SDS011;3299;42.004;24.868;2023-06-22T13:02:12;7.15;;;6.00;;
6531;SDS011;3299;42.004;24.868;2023-06-22T13:04:38;6.43;;;5.82;;
6531;SDS011;3299;42.004;24.868;2023-06-22T13:07:04;6.47;;;5.88;;
6531;SDS011;3299;42.004;24.868;2023-06-22T13:09:29;6.13;;;5.63;;
6531;SDS011;3299;42.004;24.868;2023-06-22T13:11:55;10.57;;;5.53;;
6531;SDS011;3299;42.004;24.868;2023-06-22T13:14:20;6.38;;;5.78;;
6531;SDS011;3299;42.004;24.868;2023-06-22T13:16:46;8.63;;;5.75;;
6531;SDS011;3299;42.004;24.868;2023-06-22T13:19:11;6.72;;;6.13;;
6531;SDS011;3299;42.004;24.868;2023-06-22T13:21:37;6.70;;;6.05;;
6531;SDS011;3299;42.004;24.868;2023-06-22T13:24:02;7.18;;;6.47;;
6531;SDS011;3299;42.004;24.868;2023-06-22T13:26:28;6.75;;;6.15;;
6531;SDS011;3299;42.004;24.868;2023-06-22T13:28:54;7.10;;;6.50;;
6531;SDS011;3299;42.004;24.868;2023-06-22T13:31:19;9.00;;;6.65;;
6531;SDS011;3299;42.004;24.868;2023-06-22T13:33:45;7.78;;;5.82;;
6531;SDS011;3299;42.004;24.868;2023-06-22T13:36:12;7.22;;;6.63;;
6531;SDS011;3299;42.004;24.868;2023-06-22T13:38:38;7.35;;;6.65;;
6531;SDS011;3299;42.004;24.868;2023-06-22T13:41:04;5.90;;;5.43;;
6531;SDS011;3299;42.004;24.868;2023-06-22T13:43:30;6.40;;;5.90;;
6531;SDS011;3299;42.004;24.868;2023-06-22T13:45:55;6.68;;;6.18;;
6531;SDS011;3299;42.004;24.868;2023-06-22T13:48:21;6.07;;;5.68;;
6531;SDS011;3299;42.004;24.868;2023-06-22T13:50:48;8.27;;;6.28;;
6531;SDS011;3299;42.004;24.868;2023-06-22T13:53:14;6.90;;;6.20;;
6531;SDS011;3299;42.004;24.868;2023-06-22T13:55:39;7.40;;;6.70;;
6531;SDS011;3299;42.004;24.868;2023-06-22T13:58:05;6.40;;;5.80;;
6531;SDS011;3299;42.004;24.868;2023-06-22T14:00:31;9.48;;;7.28;;
6531;SDS011;3299;42.004;24.868;2023-06-22T14:02:57;7.68;;;6.38;;
6531;SDS011;3299;42.004;24.868;2023-06-22T14:05:22;8.40;;;6.63;;
6531;SDS011;3299;42.004;24.868;2023-06-22T14:07:48;7.57;;;6.82;;
6531;SDS011;3299;42.004;24.868;2023-06-22T14:10:13;7.22;;;6.60;;
6531;SDS011;3299;42.004;24.868;2023-06-22T14:12:38;7.22;;;6.53;;
6531;SDS011;3299;42.004;24.868;2023-06-22T14:15:04;7.78;;;7.00;;
6531;SDS011;3299;42.004;24.868;2023-06-22T14:17:30;9.27;;;7.20;;
6531;SDS011;3299;42.004;24.868;2023-06-22T14:19:55;8.27;;;7.10;;
6531;SDS011;3299;42.004;24.868;2023-06-22T14:22:21;7.18;;;6.45;;
6531;SDS011;3299;42.004;24.868;2023-06-22T14:24:47;7.68;;;7.05;;
6531;SDS011;3299;42.004;24.868;2023-06-22T14:27:13;7.20;;;6.50;;
6531;SDS011;3299;42.004;24.868;2023-06-22T14:29:39;8.25;;;6.90;;
6531;SDS011;3299;42.004;24.868;2023-06-22T14:32:04;7.25;;;6.57;;
6531;SDS011;3299;42.004;24.868;2023-06-22T14:34:31;7.32;;;6.45;;
6531;SDS011;3299;42.004;24.868;2023-06-22T14:36:57;6.88;;;6.32;;
6531;SDS011;3299;42.004;24.868;2023-06-22T14:39:23;7.25;;;6.60;;
6531;SDS011;3299;42.004;24.868;2023-06-22T14:41:48;7.97;;;7.20;;
6531;SDS011;3299;42.004;24.868;2023-06-22T14:44:14;8.95;;;8.18;;
6531;SDS011;3299;42.004;24.868;2023-06-22T14:46:40;7.97;;;6.70;;
6531;SDS011;3299;42.004;24.868;2023-06-22T14:49:05;11.98;;;6.93;;
6531;SDS011;3299;42.004;24.868;2023-06-22T14:51:31;7.25;;;6.55;;
6531;SDS011;3299;42.004;24.868;2023-06-22T14:53:56;8.68;;;7.30;;
6531;SDS011;3299;42.004;24.868;2023-06-22T14:56:21;8.65;;;7.40;;
6531;SDS011;3299;42.004;24.868;2023-06-22T14:58:47;10.18;;;7.38;;
6531;SDS011;3299;42.004;24.868;2023-06-22T15:01:12;7.47;;;6.78;;
6531;SDS011;3299;42.004;24.868;2023-06-22T15:03:38;7.10;;;6.50;;